createdAt,value
2019-03-12T00:09:40.573Z,0.40
2019-03-12T00:14:44.246Z,0.30
2019-03-12T00:24:51.185Z,0.20
2019-03-12T00:29:54.861Z,0.20
2019-03-12T00:34:58.521Z,0.20
2019-03-12T00:45:06.053Z,0.20
2019-03-12T00:50:09.830Z,0.10
2019-03-12T00:55:13.749Z,0.00
2019-03-12T01:05:21.277Z,-0.10
2019-03-12T01:20:31.955Z,-0.30
2019-03-12T01:25:35.672Z,-0.30
2019-03-12T01:35:42.641Z,-4.10
2019-03-12T01:40:46.304Z,-0.30
2019-03-12T01:45:50.341Z,-0.20
2019-03-12T01:50:54.312Z,-0.10
2019-03-12T01:55:57.996Z,0.00
2019-03-12T02:01:01.741Z,0.00
2019-03-12T02:06:05.402Z,0.10
2019-03-12T02:11:09.057Z,0.10
2019-03-12T02:16:12.757Z,0.10
2019-03-12T02:26:20.033Z,0.20
2019-03-12T02:31:23.817Z,0.20
2019-03-12T02:36:27.518Z,0.20
2019-03-12T02:51:37.826Z,0.30
2019-03-12T03:01:44.902Z,0.40
2019-03-12T03:07:10.589Z,0.40
2019-03-12T03:12:14.277Z,0.50
2019-03-12T03:22:21.252Z,0.50
2019-03-12T03:27:28.933Z,0.60
2019-03-12T03:32:31.071Z,0.60
2019-03-12T03:37:34.777Z,0.70
2019-03-12T04:02:52.087Z,0.80
2019-03-12T04:07:56.036Z,0.90
2019-03-12T04:18:03.194Z,1.00
2019-03-12T04:23:07.345Z,1.00
2019-03-12T04:34:17.419Z,1.00
2019-03-12T04:39:21.190Z,1.00
2019-03-12T04:44:24.876Z,0.90
2019-03-12T05:09:42.486Z,1.10
2019-03-12T05:40:05.481Z,1.10
2019-03-12T06:00:20.389Z,1.20
2019-03-12T06:10:27.616Z,1.30
2019-03-12T06:15:31.366Z,1.40
2019-03-12T06:20:35.110Z,1.50
2019-03-12T06:31:02.633Z,1.50
2019-03-12T06:36:21.409Z,1.50
2019-03-12T06:52:11.435Z,1.60
2019-03-12T06:57:25.755Z,1.60
2019-03-12T07:13:31.718Z,1.60
2019-03-12T07:18:47.498Z,1.70
2019-03-12T07:34:46.297Z,2.10
2019-03-12T07:39:59.837Z,2.30
2019-03-12T07:45:22.290Z,2.30
2019-03-12T08:01:17.278Z,2.40
2019-03-12T08:17:13.371Z,2.50
2019-03-12T08:22:54.361Z,2.60
2019-03-12T08:28:24.167Z,2.80
2019-03-12T08:38:46.522Z,2.90
2019-03-12T08:44:05.627Z,3.10
2019-03-12T08:49:37.718Z,3.10
2019-03-12T08:54:54.806Z,3.10
2019-03-12T09:05:34.208Z,3.10
2019-03-12T09:16:02.047Z,3.40
2019-03-12T09:21:13.537Z,3.70
2019-03-12T09:32:10.741Z,4.50
2019-03-12T09:37:35.181Z,4.60
2019-03-12T09:42:53.494Z,4.90
2019-03-12T09:48:22.337Z,5.00
2019-03-12T10:15:11.838Z,5.30
2019-03-12T10:20:34.909Z,5.40
2019-03-12T10:31:07.276Z,6.40
2019-03-12T10:36:20.958Z,6.70
2019-03-12T10:41:34.203Z,7.10
2019-03-12T10:46:57.340Z,7.20
2019-03-12T10:52:01.033Z,7.10
2019-03-12T10:57:04.926Z,7.10
2019-03-12T11:02:09.506Z,7.70
2019-03-12T11:07:16.859Z,7.40
2019-03-12T11:12:18.753Z,7.30
2019-03-12T11:17:22.527Z,7.30
2019-03-12T11:22:26.241Z,7.00
2019-03-12T11:27:30.126Z,7.30
2019-03-12T11:32:34.319Z,7.30
2019-03-12T11:37:38.357Z,7.40
2019-03-12T11:42:42.763Z,7.40
2019-03-12T11:47:46.697Z,7.00
2019-03-12T11:52:56.215Z,7.40
2019-03-12T11:57:56.800Z,7.40
2019-03-12T12:03:00.903Z,7.80
2019-03-12T12:08:04.850Z,7.90
2019-03-12T12:13:08.619Z,7.70
2019-03-12T12:18:12.421Z,7.50
2019-03-12T12:23:16.195Z,7.40
2019-03-12T12:28:19.929Z,7.60
2019-03-12T12:33:24.163Z,7.80
2019-03-12T12:38:28.069Z,8.70
2019-03-12T12:43:31.830Z,8.30
2019-03-12T12:48:36.013Z,9.10
2019-03-12T12:53:39.725Z,8.70
2019-03-12T12:58:43.466Z,8.80
2019-03-12T13:03:47.612Z,9.20
2019-03-12T13:08:51.403Z,8.80
2019-03-12T13:13:55.249Z,8.80
2019-03-12T13:18:58.985Z,8.80
2019-03-12T13:24:03.202Z,8.90
2019-03-12T13:29:06.993Z,8.70
2019-03-12T13:34:10.717Z,8.30
2019-03-12T13:39:14.589Z,8.10
2019-03-12T13:44:18.728Z,8.30
2019-03-12T13:49:22.963Z,8.40
2019-03-12T13:54:30.018Z,8.50
2019-03-12T13:59:33.883Z,8.40
2019-03-12T14:04:37.797Z,8.60
2019-03-12T14:09:41.605Z,8.50
2019-03-12T14:14:46.221Z,8.50
2019-03-12T14:19:49.946Z,8.60
2019-03-12T14:24:53.718Z,8.40
2019-03-12T14:29:57.466Z,8.10
2019-03-12T14:35:01.439Z,8.00
2019-03-12T14:40:05.630Z,7.90
2019-03-12T14:45:12.011Z,7.90
2019-03-12T14:50:15.984Z,7.90
2019-03-12T14:55:19.851Z,8.00
2019-03-12T15:00:24.966Z,8.00
2019-03-12T15:05:28.890Z,8.00
2019-03-12T15:10:32.726Z,7.80
2019-03-12T15:15:36.412Z,7.80
2019-03-12T15:20:40.176Z,7.70
2019-03-12T15:25:44.238Z,7.60
2019-03-12T15:30:48.085Z,7.60
2019-03-12T15:35:51.929Z,7.60
2019-03-12T15:40:55.646Z,7.60
2019-03-12T15:45:59.374Z,7.60
2019-03-12T15:51:03.687Z,7.50
2019-03-12T15:56:08.123Z,7.50
2019-03-12T16:01:11.842Z,7.40
2019-03-12T16:06:15.942Z,7.30
2019-03-12T16:11:19.635Z,7.30
2019-03-12T16:21:26.737Z,7.10
2019-03-12T16:26:30.502Z,7.10
2019-03-12T16:36:37.507Z,7.00
2019-03-12T16:41:41.198Z,6.90
2019-03-12T16:46:44.920Z,6.80
2019-03-12T16:56:51.978Z,6.70
2019-03-12T17:01:55.683Z,6.70
2019-03-12T17:06:59.635Z,6.60
2019-03-12T17:12:03.502Z,6.50
2019-03-12T17:17:07.237Z,6.40
2019-03-12T17:22:11.025Z,6.40
2019-03-12T17:27:14.729Z,6.40
2019-03-12T17:32:18.585Z,7.30
2019-03-12T17:37:22.285Z,6.30
2019-03-12T17:42:26.229Z,6.30
2019-03-12T17:47:30.506Z,6.20
2019-03-12T18:02:42.685Z,6.20
2019-03-12T18:07:46.466Z,6.30
2019-03-12T18:12:50.522Z,6.30
2019-03-12T18:17:54.272Z,6.30
2019-03-12T18:38:08.158Z,6.30
2019-03-12T18:43:14.586Z,6.30
2019-03-12T18:48:17.286Z,6.30
2019-03-12T18:53:21.328Z,6.20
2019-03-12T18:58:25.034Z,6.20
2019-03-12T19:03:28.863Z,6.10
2019-03-12T19:08:32.858Z,6.10
2019-03-12T19:13:39.099Z,6.00
2019-03-12T19:18:43.189Z,6.00
2019-03-12T19:23:46.938Z,6.00
2019-03-12T19:28:52.756Z,6.10
2019-03-12T19:33:59.482Z,6.10
2019-03-12T19:39:03.866Z,6.10
2019-03-12T19:44:07.737Z,6.00
2019-03-12T19:54:15.478Z,6.00
2019-03-12T19:59:19.316Z,6.00
2019-03-12T20:04:23.116Z,6.00
2019-03-12T20:09:49.562Z,6.00
2019-03-12T20:15:45.763Z,5.90
2019-03-12T20:26:48.307Z,5.90
2019-03-12T20:37:59.361Z,5.90
2019-03-12T20:43:50.009Z,5.90
2019-03-12T20:49:34.405Z,5.90
2019-03-12T20:55:21.545Z,5.90
2019-03-12T21:01:11.446Z,5.90
2019-03-12T21:07:02.357Z,5.90
2019-03-12T21:12:44.251Z,5.90
2019-03-12T21:18:24.278Z,5.90
2019-03-12T21:23:50.565Z,5.90
2019-03-12T21:29:34.745Z,6.00
2019-03-12T21:34:38.606Z,6.00
2019-03-12T21:39:54.572Z,6.00
2019-03-12T21:44:48.302Z,6.00
2019-03-12T21:49:52.082Z,6.10
2019-03-12T21:55:01.033Z,6.10
2019-03-12T22:00:06.614Z,6.10
2019-03-12T22:05:10.837Z,6.20
2019-03-12T22:10:14.795Z,6.20
2019-03-12T22:15:19.265Z,6.20
2019-03-12T22:20:23.151Z,6.30
2019-03-12T22:25:26.865Z,6.20
2019-03-12T22:30:30.655Z,6.20
2019-03-12T22:35:34.801Z,6.30
2019-03-12T22:40:38.821Z,6.20
2019-03-12T22:45:42.798Z,6.20
2019-03-12T22:55:49.981Z,6.20
2019-03-12T23:00:56.258Z,6.20
2019-03-12T23:05:59.997Z,6.20
2019-03-12T23:11:04.093Z,6.20
2019-03-12T23:21:11.446Z,6.10
2019-03-12T23:26:15.259Z,6.20
2019-03-12T23:31:19.226Z,6.20
2019-03-12T23:36:23.349Z,6.10
2019-03-12T23:41:27.145Z,6.20
2019-03-12T23:46:31.035Z,6.20
2019-03-12T23:51:34.773Z,6.10
2019-03-12T23:56:38.583Z,6.10
